Data for 06/18/2015

Time Sea-Level Adjusted Pressure Absolute Pressure Temperature Relative Humidity Dew Point   
(mb) (inHg) (mb) (inHg) (C) (F) (%) (C) (F)
00:05 1020 30.12 849 25.07 16.5 61.7 57 8.1 46.6
00:10 1020 30.12 849 25.07 16.4 61.6 58 8.2 46.7
00:15 1020 30.12 849 25.07 16.4 61.5 58 8.1 46.6
00:20 1020 30.12 849 25.07 16.3 61.4 58 8.1 46.6
00:25 1020 30.12 849 25.07 16.3 61.3 58 8.2 46.7
00:30 1020 30.12 849 25.07 16.1 61.1 59 8.1 46.6
00:35 1020 30.12 849 25.07 16.1 60.9 59 8.2 46.7
00:40 1020 30.12 849 25.07 16.1 60.9 59 8.2 46.8
00:45 1020 30.12 849 25.07 16 60.8 59 8.2 46.7
00:50 1020 30.12 849 25.07 15.9 60.7 60 8.3 46.9
00:55 1020 30.12 849 25.07 15.9 60.5 60 8.1 46.6
01:00 1020 30.12 849 25.07 15.8 60.4 61 8.3 46.9
01:05 1020 30.12 849 25.07 15.7 60.2 61 8.3 46.9
01:10 1020 30.12 849 25.07 15.6 60 61 8.2 46.8
01:15 1020 30.12 849 25.07 15.5 59.8 61 8.2 46.7
01:20 1020 30.12 849 25.07 15.5 59.8 61 8.1 46.6
01:25 1020 30.12 849 25.07 15.4 59.7 62 8.2 46.8
01:30 1020 30.12 849 25.07 15.3 59.6 62 8.1 46.6
01:35 1020 30.12 849 25.07 15.3 59.5 62 8.2 46.7
01:40 1020 30.12 849 25.07 15.2 59.4 62 8.2 46.7
01:45 1020 30.12 849 25.07 15.1 59.2 63 8.2 46.7
01:50 1020 30.12 849 25.07 15.1 59.2 63 8.3 46.9
01:55 1020 30.12 849 25.07 15.1 59.1 63 8.2 46.8
02:00 1020 30.12 849 25.07 15 59 64 8.3 46.9
02:05 1020 30.12 849 25.07 15 59.1 63 8.2 46.8
02:10 1020 30.12 849 25.07 15 58.9 64 8.3 46.9
02:15 1020 30.12 849 25.07 14.9 58.7 65 8.3 47
02:20 1020 30.12 849 25.07 14.7 58.4 65 8.3 46.9
02:25 1020 30.12 849 25.07 14.5 58.1 66 8.3 46.9
02:30 1020 30.12 849 25.07 14.4 58 66 8.2 46.7
02:35 1020 30.12 849 25.07 14.5 58.1 66 8.2 46.8
02:40 1020 30.12 849 25.07 14.5 58 66 8.3 46.9
02:45 1020 30.12 849 25.07 14.4 57.9 66 8.2 46.8
02:50 1020 30.12 849 25.07 14.3 57.8 67 8.3 46.9
02:55 1020 30.12 849 25.07 14.2 57.6 67 8.3 46.9
03:00 1020 30.12 849 25.07 14.2 57.5 68 8.3 46.9
03:05 1020 30.12 849 25.07 14.1 57.3 68 8.3 46.9
03:10 1020 30.12 849 25.07 14 57.2 68 8.3 46.9
03:15 1020 30.12 849 25.07 13.9 57 69 8.3 46.9
03:20 1020 30.12 849 25.07 13.9 56.9 69 8.3 46.9
03:25 1020 30.12 849 25.07 13.8 56.8 69 8.3 46.9
03:30 1020 30.12 849 25.07 13.7 56.7 69 8.2 46.8
03:35 1020 30.12 849 25.07 13.7 56.6 69 8.2 46.7
03:40 1020 30.12 849 25.07 13.7 56.6 69 8.2 46.8
03:45 1020 30.12 849 25.07 13.6 56.4 69 8.1 46.5
03:50 1020 30.12 849 25.07 13.6 56.4 69 8 46.4
03:55 1020 30.12 849 25.07 13.5 56.2 69 8 46.4
04:00 1020 30.12 850 25.1 13.4 56.2 69 7.9 46.2
04:05 1020 30.12 850 25.1 13.4 56.1 70 8 46.4
04:10 1020 30.12 850 25.1 13.3 55.9 70 8 46.4
04:15 1020 30.12 850 25.1 13.2 55.8 70 7.9 46.3
04:20 1021 30.15 850 25.1 13.2 55.7 70 7.9 46.2
04:25 1021 30.15 850 25.1 13.1 55.6 71 8 46.3
04:30 1021 30.15 850 25.1 13.1 55.6 70 7.9 46.2
04:35 1021 30.15 850 25.1 13.1 55.5 71 7.9 46.2
04:40 1021 30.15 850 25.1 13 55.5 71 7.9 46.2
04:45 1021 30.15 850 25.1 13 55.5 71 7.9 46.2
04:50 1021 30.15 850 25.1 13 55.5 71 7.9 46.2
04:55 1021 30.15 850 25.1 13.1 55.6 71 7.9 46.2
05:00 1020 30.12 850 25.1 13.1 55.6 71 7.9 46.3
05:05 1020 30.12 850 25.1 13.1 55.6 71 8 46.4
05:10 1020 30.12 850 25.1 13.2 55.7 71 8 46.5
05:15 1020 30.12 850 25.1 13.3 55.9 70 8 46.5
05:20 1020 30.12 850 25.1 13.4 56.1 70 8.1 46.6
05:25 1020 30.12 850 25.1 13.4 56.2 70 8.2 46.7
05:30 1020 30.12 850 25.1 13.5 56.3 70 8.3 46.9
05:35 1021 30.15 850 25.1 13.5 56.4 70 8.2 46.8
05:40 1021 30.15 850 25.1 13.6 56.5 69 8.2 46.7
05:45 1021 30.15 850 25.1 13.6 56.5 70 8.2 46.8
05:50 1021 30.15 850 25.1 13.6 56.5 70 8.2 46.8
05:55 1021 30.15 850 25.1 13.6 56.5 70 8.2 46.8
06:00 1021 30.15 850 25.1 13.8 56.8 69 8.2 46.7
06:05 1021 30.15 850 25.1 14 57.1 68 8.3 46.9
06:10 1021 30.15 850 25.1 14.2 57.5 68 8.3 47
06:15 1021 30.15 850 25.1 14.1 57.4 68 8.3 47
06:20 1021 30.15 850 25.1 14.1 57.4 69 8.5 47.2
06:25 1021 30.15 850 25.1 14 57.3 68 8.3 46.9
06:30 1021 30.15 850 25.1 14.2 57.6 67 8.3 46.9
06:35 1021 30.15 850 25.1 14.5 58.1 66 8.4 47.1
06:40 1021 30.15 850 25.1 14.5 58.2 67 8.5 47.2
06:45 1021 30.15 850 25.1 14.6 58.2 66 8.4 47.1
06:50 1020 30.12 850 25.1 14.6 58.3 65 8.3 46.9
06:55 1020 30.12 850 25.1 14.8 58.6 64 8.2 46.8
07:00 1020 30.12 850 25.1 14.8 58.7 64 8.2 46.8
07:05 1020 30.12 850 25.1 15 59.1 64 8.3 46.9
07:10 1020 30.12 850 25.1 15.2 59.4 62 8.1 46.6
07:15 1020 30.12 849 25.07 15.3 59.5 63 8.3 47
07:20 1020 30.12 849 25.07 15.2 59.4 62 8.1 46.7
07:25 1020 30.12 850 25.1 15.4 59.7 62 8.2 46.8
07:30 1020 30.12 849 25.07 15.6 60.1 62 8.4 47.2
07:35 1020 30.12 850 25.1 15.6 60.2 63 8.6 47.6
07:40 1020 30.12 849 25.07 15.8 60.5 62 8.5 47.3
07:45 1020 30.12 849 25.07 16.2 61.2 61 8.7 47.6
07:50 1020 30.12 850 25.1 16.2 61.2 60 8.6 47.5
07:55 1020 30.12 850 25.1 16.5 61.7 59 8.5 47.3
08:00 1020 30.12 850 25.1 17 62.5 57 8.5 47.3
08:05 1020 30.12 850 25.1 17.3 63.1 56 8.4 47.2
08:10 1020 30.12 850 25.1 17.5 63.5 55 8.4 47.1
08:15 1020 30.12 850 25.1 17.7 63.8 55 8.6 47.4
08:20 1020 30.12 850 25.1 17.7 63.9 56 8.9 48
08:25 1020 30.12 850 25.1 17.7 63.9 55 8.6 47.6
08:30 1020 30.12 850 25.1 18.1 64.7 53 8.5 47.3
08:35 1020 30.12 850 25.1 18.5 65.2 53 8.8 47.8
08:40 1020 30.12 849 25.07 18.5 65.2 52 8.6 47.5
08:45 1020 30.12 849 25.07 18.7 65.6 52 8.7 47.7
08:50 1020 30.12 849 25.07 18.8 65.8 52 9 48.1
08:55 1020 30.12 849 25.07 19 66.2 52 9 48.2
09:00 1020 30.12 849 25.07 19 66.1 52 9.1 48.4
09:05 1020 30.12 849 25.07 19.1 66.3 51 8.7 47.6
09:10 1020 30.12 849 25.07 19.1 66.3 51 8.9 48
09:15 1020 30.12 849 25.07 19.4 66.9 51 9.1 48.3
09:20 1020 30.12 849 25.07 19.5 67 51 9.1 48.3
09:25 1020 30.12 849 25.07 19.2 66.6 52 9.2 48.6
09:30 1020 30.12 849 25.07 19.9 67.9 47 8.5 47.3
09:35 1020 30.12 849 25.07 20.6 69 48 9.3 48.7
09:40 1020 30.12 849 25.07 20.1 68.2 48 9 48.2
09:45 1020 30.12 849 25.07 20.6 69 47 9.1 48.4
09:50 1020 30.12 849 25.07 20.4 68.7 47 8.9 48.1
09:55 1020 30.12 849 25.07 20.7 69.3 49 9.7 49.5
10:00 1020 30.12 849 25.07 19.6 67.2 50 9.1 48.3
10:05 1020 30.12 849 25.07 19.6 67.3 49 8.7 47.7
10:10 1020 30.12 849 25.07 20.2 68.4 47 8.7 47.6
10:15 1020 30.12 849 25.07 21 69.8 45 8.6 47.5
10:20 1020 30.12 849 25.07 21.5 70.8 45 9.3 48.8
10:25 1020 30.12 849 25.07 20.8 69.5 47 9.2 48.5
10:30 1020 30.12 849 25.07 21.1 70.1 47 9.5 49.1
10:35 1020 30.12 849 25.07 21.1 70 45 9 48.2
10:40 1020 30.12 849 25.07 21.4 70.6 43 8.5 47.4
10:45 1020 30.12 849 25.07 22.2 72 43 9.1 48.3
10:50 1020 30.12 849 25.07 22.9 73.2 42 9.6 49.2
10:55 1020 30.12 849 25.07 23.1 73.6 40 8.9 48
11:00 1020 30.12 849 25.07 23.2 73.7 42 9.7 49.5
11:05 1020 30.12 849 25.07 23 73.3 44 10.1 50.2
11:10 1020 30.12 849 25.07 22.1 71.7 43 9.2 48.6
11:15 1019 30.09 849 25.07 22.3 72.1 42 8.9 48
11:20 1019 30.09 848 25.04 22.2 71.9 44 9.6 49.2
11:25 1019 30.09 848 25.04 22 71.6 44 9.3 48.7
11:30 1019 30.09 848 25.04 23.1 73.6 41 9.3 48.7
11:35 1019 30.09 848 25.04 23.2 73.7 42 9.6 49.3
11:40 1019 30.09 848 25.04 23.4 74 40 9.1 48.3
11:45 1019 30.09 848 25.04 23.2 73.7 40 9.1 48.3
11:50 1019 30.09 848 25.04 23.9 75.1 37 8.5 47.4
11:55 1019 30.09 848 25.04 24.3 75.8 37 9.1 48.3
12:00 1019 30.09 848 25.04 23.2 73.8 41 9.4 49
12:05 1019 30.09 848 25.04 22.9 73.2 41 9 48.1
12:10 1019 30.09 848 25.04 23.1 73.7 40 9.1 48.4
12:15 1019 30.09 848 25.04 22.4 72.3 43 9.3 48.8
12:20 1019 30.09 848 25.04 22.2 72 43 9.2 48.5
12:25 1019 30.09 848 25.04 22.1 71.8 44 9.4 48.9
12:30 1019 30.09 848 25.04 21.9 71.4 44 9.4 48.9
12:35 1019 30.09 848 25.04 22.2 71.9 44 9.5 49.1
12:40 1019 30.09 848 25.04 22.2 72 44 9.6 49.3
12:45 1019 30.09 848 25.04 22.3 72.1 44 9.7 49.4
12:50 1019 30.09 848 25.04 22.4 72.4 43 9.4 48.9
12:55 1019 30.09 848 25.04 22.4 72.3 45 10 50
13:00 1018 30.06 848 25.04 22.2 71.9 45 9.8 49.6
13:05 1018 30.06 847 25.01 21.7 71.1 46 9.9 49.9
13:10 1018 30.06 847 25.01 21.4 70.6 47 9.8 49.7
13:15 1018 30.06 847 25.01 22 71.6 44 9.4 48.9
13:20 1018 30.06 847 25.01 22.1 71.8 44 9.5 49.2
13:25 1018 30.06 847 25.01 22.1 71.7 45 9.8 49.7
13:30 1018 30.06 847 25.01 22.4 72.2 44 9.7 49.5
13:35 1018 30.06 847 25.01 21.9 71.5 47 10.3 50.6
13:40 1018 30.06 847 25.01 22.1 71.7 45 9.8 49.6
13:45 1018 30.06 847 25.01 22.2 72 46 10.1 50.2
13:50 1018 30.06 847 25.01 22.2 72 45 10 50
13:55 1018 30.06 847 25.01 22.7 72.9 45 10.2 50.4
14:00 1018 30.06 847 25.01 23.1 73.6 45 10.8 51.5
14:05 1017 30.03 847 25.01 23.2 73.7 46 11.1 51.9
14:10 1017 30.03 847 25.01 23.3 73.9 39 8.9 48
14:15 1017 30.03 847 25.01 23.8 74.8 35 7.5 45.6
14:20 1017 30.03 847 25.01 24.2 75.5 34 7.6 45.7
14:25 1017 30.03 846 24.98 24.4 75.9 32 6.7 44
14:30 1017 30.03 846 24.98 24.6 76.3 35 8.5 47.3
14:35 1017 30.03 846 24.98 24.9 76.9 31 6.7 44
14:40 1017 30.03 846 24.98 24.8 76.7 32 7.3 45.2
14:45 1017 30.03 846 24.98 24.8 76.7 30 6.4 43.5
14:50 1017 30.03 846 24.98 24.7 76.5 28 5.1 41.2
14:55 1017 30.03 846 24.98 24.7 76.5 28 5 41
15:00 1017 30.03 846 24.98 24.8 76.6 27 4.9 40.9
15:05 1017 30.03 846 24.98 25 77 28 5.6 42.2
15:10 1017 30.03 846 24.98 25 76.9 28 5.5 41.8
15:15 1017 30.03 846 24.98 24.8 76.6 29 5.6 42.1
15:20 1017 30.03 846 24.98 24.8 76.6 28 5.3 41.6
15:25 1017 30.03 846 24.98 25.5 77.9 27 5.3 41.5
15:30 1017 30.03 846 24.98 26.2 79.1 26 5.4 41.7
15:35 1017 30.03 846 24.98 26.8 80.2 26 6.1 43
15:40 1017 30.03 846 24.98 27.3 81.2 25 6.1 42.9
15:45 1016 30 846 24.98 27 80.5 25 5.8 42.5
15:50 1016 30 846 24.98 26.3 79.3 25 5 41
15:55 1016 30 845 24.95 26.7 80.1 22 3.3 38
16:00 1016 30 845 24.95 26.7 80.1 22 3.3 38
16:05 1016 30 845 24.95 26.8 80.2 21 2.9 37.2
16:10 1016 30 845 24.95 26.5 79.8 20 2.3 36.2
16:15 1016 30 845 24.95 26.5 79.7 20 2.2 35.9
16:20 1016 30 845 24.95 27 80.7 20 2.7 36.9
16:25 1016 30 845 24.95 27.1 80.8 20 2.4 36.4
16:30 1016 30 845 24.95 26.9 80.5 19 1.7 35
16:35 1016 30 845 24.95 26.9 80.3 19 1.4 34.5
16:40 1016 30 845 24.95 26.9 80.4 19 1.9 35.4
16:45 1016 30 845 24.95 26.7 80 20 2.5 36.4
16:50 1016 30 845 24.95 26.6 79.9 20 2.3 36.2
16:55 1016 30 845 24.95 26.6 79.8 19 1.7 35
17:00 1016 30 845 24.95 26.5 79.7 21 2.6 36.6
17:05 1016 30 846 24.98 26.3 79.4 21 2.5 36.5
17:10 1016 30 846 24.98 26 78.8 24 3.9 39
17:15 1017 30.03 846 24.98 25.3 77.5 29 6 42.8
17:20 1017 30.03 847 25.01 24.2 75.5 36 8.4 47
17:25 1018 30.06 847 25.01 22.6 72.6 42 9.1 48.3
17:30 1018 30.06 847 25.01 21.5 70.7 44 8.8 47.8
17:35 1017 30.03 847 25.01 21.6 70.8 50 10.8 51.5
17:40 1017 30.03 846 24.98 20.4 68.7 58 11.9 53.4
17:45 1017 30.03 846 24.98 20.3 68.6 53 10.5 50.8
17:50 1017 30.03 846 24.98 19.6 67.3 54 10.3 50.5
17:55 1017 30.03 846 24.98 19.3 66.7 55 10 50.1
18:00 1017 30.03 847 25.01 19.1 66.4 64 12.3 54.1
18:05 1017 30.03 847 25.01 18.7 65.7 62 11.4 52.6
18:10 1018 30.06 847 25.01 18.6 65.5 61 11.2 52.1
18:15 1017 30.03 846 24.98 18.9 65.9 61 11.2 52.1
18:20 1017 30.03 846 24.98 19.2 66.6 57 10.6 51.1
18:25 1017 30.03 846 24.98 19.5 67.1 49 8.7 47.6
18:30 1017 30.03 846 24.98 20.6 69 46 8.8 47.8
18:35 1017 30.03 846 24.98 20.7 69.3 45 8.6 47.6
18:40 1017 30.03 846 24.98 20.7 69.3 48 9.4 48.9
18:45 1017 30.03 846 24.98 20.2 68.3 52 10 50.1
18:50 1017 30.03 846 24.98 20 68 51 9.6 49.2
18:55 1017 30.03 846 24.98 20.1 68.2 51 9.9 49.9
19:00 1017 30.03 846 24.98 20 68 54 10.6 51.1
19:05 1016 30 846 24.98 19.4 67 58 11 51.7
19:10 1016 30 845 24.95 19.3 66.7 53 9.5 49
19:15 1016 30 845 24.95 19.6 67.2 52 9.5 49.1
19:20 1016 30 845 24.95 19.7 67.5 50 9 48.2
19:25 1016 30 845 24.95 19.7 67.5 50 9.2 48.6
19:30 1016 30 845 24.95 19.7 67.5 49 9 48.2
19:35 1016 30 845 24.95 19.8 67.7 49 9 48.3
19:40 1016 30 845 24.95 19.6 67.2 52 9.7 49.4
19:45 1016 30 845 24.95 19.3 66.7 50 8.6 47.5
19:50 1016 30 845 24.95 19.5 67.1 50 9.1 48.3
19:55 1016 30 845 24.95 19.2 66.6 52 9.4 48.8
20:00 1016 30 845 24.95 19 66.2 53 9.3 48.7
20:05 1016 30 845 24.95 19 66.2 51 8.8 47.9
20:10 1016 30 845 24.95 19 66.2 50 8.5 47.3
20:15 1016 30 845 24.95 19.2 66.6 48 7.9 46.3
20:20 1016 30 845 24.95 19.4 67 49 8.6 47.4
20:25 1016 30 845 24.95 19.3 66.7 49 8.4 47.2
20:30 1016 30 845 24.95 19.3 66.7 50 8.6 47.5
20:35 1016 30 845 24.95 19.1 66.3 51 8.7 47.7
20:40 1016 30 845 24.95 19 66.1 51 8.7 47.6
20:45 1016 30 845 24.95 18.8 65.8 52 8.8 47.9
20:50 1016 30 845 24.95 18.6 65.5 53 8.9 47.9
20:55 1016 30 845 24.95 18.4 65.1 53 8.7 47.7
21:00 1016 30 845 24.95 18.4 65 52 8.5 47.3
21:05 1016 30 845 24.95 18.5 65.2 51 8.3 46.9
21:10 1016 30 845 24.95 18.7 65.6 50 8.1 46.5
21:15 1015 29.97 845 24.95 19 66.1 47 7.5 45.6
21:20 1016 30 845 24.95 19.5 67 47 7.9 46.2
21:25 1016 30 845 24.95 19.4 66.9 47 7.9 46.3
21:30 1016 30 845 24.95 19.2 66.5 49 8.4 47.2
21:35 1016 30 845 24.95 18.8 65.9 51 8.6 47.4
21:40 1016 30 846 24.98 18.7 65.7 52 8.7 47.6
21:45 1016 30 845 24.95 18.5 65.3 53 8.7 47.7
21:50 1016 30 845 24.95 18.1 64.6 55 9.1 48.3
21:55 1016 30 845 24.95 17.9 64.1 57 9.3 48.7
22:00 1016 30 845 24.95 17.5 63.5 58 9.2 48.6
22:05 1016 30 845 24.95 17.5 63.5 56 8.8 47.9
22:10 1016 30 845 24.95 17.7 63.9 55 8.7 47.7
22:15 1016 30 845 24.95 17.8 64 54 8.6 47.5
22:20 1016 30 845 24.95 17.9 64.2 53 8.4 47.2
22:25 1016 30 845 24.95 18 64.4 57 9.4 49
22:30 1016 30 845 24.95 17.8 64 55 8.7 47.7
22:35 1016 30 845 24.95 17.7 63.9 56 9 48.2
22:40 1016 30 845 24.95 17.5 63.5 57 9 48.2
22:45 1016 30 845 24.95 17.4 63.2 57 8.9 48
22:50 1016 30 845 24.95 17.2 63 58 8.9 48
22:55 1016 30 845 24.95 17.1 62.7 58 8.9 48.1
23:00 1016 30 845 24.95 17 62.7 57 8.5 47.3
23:05 1016 30 845 24.95 17 62.5 59 9 48.2
23:10 1016 30 845 24.95 16.7 62.1 59 8.7 47.6
23:15 1016 30 845 24.95 16.5 61.7 61 9.1 48.4
23:20 1016 30 845 24.95 16.1 61 62 9 48.2
23:25 1016 30 845 24.95 16.1 61.1 61 8.6 47.5
23:30 1016 30 845 24.95 16.4 61.6 59 8.5 47.3
23:35 1016 30 845 24.95 16.4 61.5 60 8.7 47.7
23:40 1016 30 845 24.95 16.3 61.3 60 8.7 47.7
23:45 1016 30 845 24.95 16.2 61.1 61 8.7 47.6
23:50 1016 30 845 24.95 16.1 61 61 8.7 47.6
23:55 1016 30 845 24.95 16 60.8 61 8.5 47.4
24:00 1016 30 845 24.95 16 60.8 61 8.6 47.5